sensor_id;sensor_type;location;lat;lon;timestamp;P1;durP1;ratioP1;P2;durP2;ratioP2
57593;SDS011;43423;46.510;6.686;2022-12-10T00:01:24;35.70;;;15.38;;
57593;SDS011;43423;46.510;6.686;2022-12-10T00:03:51;37.17;;;14.38;;
57593;SDS011;43423;46.510;6.686;2022-12-10T00:06:18;37.50;;;14.38;;
57593;SDS011;43423;46.510;6.686;2022-12-10T00:08:45;36.50;;;14.63;;
57593;SDS011;43423;46.510;6.686;2022-12-10T00:11:12;32.03;;;14.50;;
57593;SDS011;43423;46.510;6.686;2022-12-10T00:13:39;35.88;;;14.18;;
57593;SDS011;43423;46.510;6.686;2022-12-10T00:16:07;33.90;;;13.07;;
57593;SDS011;43423;46.510;6.686;2022-12-10T00:18:36;38.40;;;13.45;;
57593;SDS011;43423;46.510;6.686;2022-12-10T00:21:02;28.08;;;11.85;;
57593;SDS011;43423;46.510;6.686;2022-12-10T00:23:30;30.30;;;11.85;;
57593;SDS011;43423;46.510;6.686;2022-12-10T00:26:08;26.83;;;11.93;;
57593;SDS011;43423;46.510;6.686;2022-12-10T00:28:35;25.85;;;11.45;;
57593;SDS011;43423;46.510;6.686;2022-12-10T00:31:02;30.58;;;13.27;;
57593;SDS011;43423;46.510;6.686;2022-12-10T00:33:28;26.42;;;11.23;;
57593;SDS011;43423;46.510;6.686;2022-12-10T00:35:54;28.42;;;11.68;;
57593;SDS011;43423;46.510;6.686;2022-12-10T00:38:19;26.45;;;10.45;;
57593;SDS011;43423;46.510;6.686;2022-12-10T00:40:45;23.50;;;10.35;;
57593;SDS011;43423;46.510;6.686;2022-12-10T00:43:10;22.00;;;9.75;;
57593;SDS011;43423;46.510;6.686;2022-12-10T00:45:36;21.25;;;9.35;;
57593;SDS011;43423;46.510;6.686;2022-12-10T00:48:01;19.83;;;8.82;;
57593;SDS011;43423;46.510;6.686;2022-12-10T00:50:27;19.02;;;8.82;;
57593;SDS011;43423;46.510;6.686;2022-12-10T00:52:52;17.75;;;8.43;;
57593;SDS011;43423;46.510;6.686;2022-12-10T00:55:18;22.05;;;9.07;;
57593;SDS011;43423;46.510;6.686;2022-12-10T00:57:43;22.98;;;9.48;;
57593;SDS011;43423;46.510;6.686;2022-12-10T01:00:09;23.40;;;10.05;;
57593;SDS011;43423;46.510;6.686;2022-12-10T01:02:35;19.98;;;8.70;;
57593;SDS011;43423;46.510;6.686;2022-12-10T01:05:01;17.58;;;8.60;;
57593;SDS011;43423;46.510;6.686;2022-12-10T01:07:26;21.17;;;8.68;;
57593;SDS011;43423;46.510;6.686;2022-12-10T01:09:52;21.13;;;8.90;;
57593;SDS011;43423;46.510;6.686;2022-12-10T01:12:17;21.65;;;8.43;;
57593;SDS011;43423;46.510;6.686;2022-12-10T01:14:43;19.92;;;8.77;;
57593;SDS011;43423;46.510;6.686;2022-12-10T01:17:08;19.50;;;9.07;;
57593;SDS011;43423;46.510;6.686;2022-12-10T01:19:34;19.92;;;7.90;;
57593;SDS011;43423;46.510;6.686;2022-12-10T01:22:00;21.20;;;8.45;;
57593;SDS011;43423;46.510;6.686;2022-12-10T01:24:26;20.83;;;9.43;;
57593;SDS011;43423;46.510;6.686;2022-12-10T01:26:53;19.73;;;8.77;;
57593;SDS011;43423;46.510;6.686;2022-12-10T01:29:20;25.52;;;10.88;;
57593;SDS011;43423;46.510;6.686;2022-12-10T01:31:47;22.88;;;9.57;;
57593;SDS011;43423;46.510;6.686;2022-12-10T01:34:16;24.33;;;10.25;;
57593;SDS011;43423;46.510;6.686;2022-12-10T01:36:43;22.67;;;10.20;;
57593;SDS011;43423;46.510;6.686;2022-12-10T01:39:10;27.70;;;12.00;;
57593;SDS011;43423;46.510;6.686;2022-12-10T01:41:40;26.02;;;11.63;;
57593;SDS011;43423;46.510;6.686;2022-12-10T01:46:41;28.88;;;11.40;;
57593;SDS011;43423;46.510;6.686;2022-12-10T01:49:19;22.55;;;10.57;;
57593;SDS011;43423;46.510;6.686;2022-12-10T01:51:47;24.92;;;10.65;;
57593;SDS011;43423;46.510;6.686;2022-12-10T01:54:22;25.35;;;10.00;;
57593;SDS011;43423;46.510;6.686;2022-12-10T01:57:26;23.67;;;10.25;;
57593;SDS011;43423;46.510;6.686;2022-12-10T02:00:07;22.00;;;10.02;;
57593;SDS011;43423;46.510;6.686;2022-12-10T02:02:44;26.08;;;9.98;;
57593;SDS011;43423;46.510;6.686;2022-12-10T02:05:25;25.02;;;10.13;;
57593;SDS011;43423;46.510;6.686;2022-12-10T02:16:06;27.63;;;10.30;;
57593;SDS011;43423;46.510;6.686;2022-12-10T02:18:47;24.27;;;10.85;;
57593;SDS011;43423;46.510;6.686;2022-12-10T02:21:19;23.65;;;9.82;;
57593;SDS011;43423;46.510;6.686;2022-12-10T02:23:51;26.02;;;11.02;;
57593;SDS011;43423;46.510;6.686;2022-12-10T02:31:40;20.05;;;9.68;;
57593;SDS011;43423;46.510;6.686;2022-12-10T02:34:11;24.58;;;11.50;;
57593;SDS011;43423;46.510;6.686;2022-12-10T02:36:41;27.63;;;11.40;;
57593;SDS011;43423;46.510;6.686;2022-12-10T02:39:11;27.20;;;11.33;;
57593;SDS011;43423;46.510;6.686;2022-12-10T02:41:41;23.90;;;9.52;;
57593;SDS011;43423;46.510;6.686;2022-12-10T02:44:12;28.13;;;11.32;;
57593;SDS011;43423;46.510;6.686;2022-12-10T02:46:41;22.88;;;9.57;;
57593;SDS011;43423;46.510;6.686;2022-12-10T02:49:10;22.52;;;10.00;;
57593;SDS011;43423;46.510;6.686;2022-12-10T02:51:39;23.02;;;10.18;;
57593;SDS011;43423;46.510;6.686;2022-12-10T02:54:06;19.38;;;8.88;;
57593;SDS011;43423;46.510;6.686;2022-12-10T02:56:54;22.67;;;9.85;;
57593;SDS011;43423;46.510;6.686;2022-12-10T03:01:56;18.52;;;8.23;;
57593;SDS011;43423;46.510;6.686;2022-12-10T03:07:10;19.10;;;7.50;;
57593;SDS011;43423;46.510;6.686;2022-12-10T03:09:47;17.88;;;7.90;;
57593;SDS011;43423;46.510;6.686;2022-12-10T03:12:18;15.05;;;7.45;;
57593;SDS011;43423;46.510;6.686;2022-12-10T03:14:47;16.45;;;6.50;;
57593;SDS011;43423;46.510;6.686;2022-12-10T03:17:13;12.45;;;6.03;;
57593;SDS011;43423;46.510;6.686;2022-12-10T03:19:40;11.93;;;5.80;;
57593;SDS011;43423;46.510;6.686;2022-12-10T03:22:09;14.02;;;6.60;;
57593;SDS011;43423;46.510;6.686;2022-12-10T03:24:37;12.43;;;6.10;;
57593;SDS011;43423;46.510;6.686;2022-12-10T03:27:07;12.10;;;5.90;;
57593;SDS011;43423;46.510;6.686;2022-12-10T03:29:41;15.68;;;6.43;;
57593;SDS011;43423;46.510;6.686;2022-12-10T03:32:11;14.05;;;6.35;;
57593;SDS011;43423;46.510;6.686;2022-12-10T03:34:38;13.98;;;6.50;;
57593;SDS011;43423;46.510;6.686;2022-12-10T03:37:04;15.38;;;6.60;;
57593;SDS011;43423;46.510;6.686;2022-12-10T03:39:31;13.13;;;6.22;;
57593;SDS011;43423;46.510;6.686;2022-12-10T03:41:57;12.95;;;6.18;;
57593;SDS011;43423;46.510;6.686;2022-12-10T03:44:30;13.35;;;6.25;;
57593;SDS011;43423;46.510;6.686;2022-12-10T03:46:57;11.30;;;5.45;;
57593;SDS011;43423;46.510;6.686;2022-12-10T03:49:23;13.00;;;6.13;;
57593;SDS011;43423;46.510;6.686;2022-12-10T03:51:49;13.38;;;5.60;;
57593;SDS011;43423;46.510;6.686;2022-12-10T03:54:15;13.65;;;6.50;;
57593;SDS011;43423;46.510;6.686;2022-12-10T03:56:40;17.35;;;7.78;;
57593;SDS011;43423;46.510;6.686;2022-12-10T03:59:06;13.20;;;5.68;;
57593;SDS011;43423;46.510;6.686;2022-12-10T04:01:31;13.88;;;5.95;;
57593;SDS011;43423;46.510;6.686;2022-12-10T04:03:57;12.95;;;6.10;;
57593;SDS011;43423;46.510;6.686;2022-12-10T04:06:23;13.20;;;6.18;;
57593;SDS011;43423;46.510;6.686;2022-12-10T04:08:49;13.60;;;6.68;;
57593;SDS011;43423;46.510;6.686;2022-12-10T04:11:15;15.40;;;7.00;;
57593;SDS011;43423;46.510;6.686;2022-12-10T04:13:41;13.52;;;7.00;;
57593;SDS011;43423;46.510;6.686;2022-12-10T04:16:26;12.75;;;6.40;;
57593;SDS011;43423;46.510;6.686;2022-12-10T04:18:56;13.55;;;6.55;;
57593;SDS011;43423;46.510;6.686;2022-12-10T04:21:27;13.75;;;7.10;;
57593;SDS011;43423;46.510;6.686;2022-12-10T04:24:12;14.38;;;7.05;;
57593;SDS011;43423;46.510;6.686;2022-12-10T04:26:58;18.02;;;7.30;;
57593;SDS011;43423;46.510;6.686;2022-12-10T04:29:28;16.60;;;6.85;;
57593;SDS011;43423;46.510;6.686;2022-12-10T04:31:55;15.70;;;6.45;;
57593;SDS011;43423;46.510;6.686;2022-12-10T04:34:22;15.30;;;7.47;;
57593;SDS011;43423;46.510;6.686;2022-12-10T04:36:48;17.25;;;7.43;;
57593;SDS011;43423;46.510;6.686;2022-12-10T04:39:14;18.77;;;7.55;;
57593;SDS011;43423;46.510;6.686;2022-12-10T04:41:41;18.30;;;7.53;;
57593;SDS011;43423;46.510;6.686;2022-12-10T04:44:09;19.73;;;7.97;;
57593;SDS011;43423;46.510;6.686;2022-12-10T04:46:34;22.63;;;9.13;;
57593;SDS011;43423;46.510;6.686;2022-12-10T04:49:00;20.30;;;7.78;;
57593;SDS011;43423;46.510;6.686;2022-12-10T04:51:26;17.50;;;7.93;;
57593;SDS011;43423;46.510;6.686;2022-12-10T04:53:52;20.10;;;8.25;;
57593;SDS011;43423;46.510;6.686;2022-12-10T04:56:17;22.95;;;8.75;;
57593;SDS011;43423;46.510;6.686;2022-12-10T04:58:43;21.08;;;9.35;;
57593;SDS011;43423;46.510;6.686;2022-12-10T05:01:09;18.15;;;8.95;;
57593;SDS011;43423;46.510;6.686;2022-12-10T05:03:36;22.02;;;9.95;;
57593;SDS011;43423;46.510;6.686;2022-12-10T05:06:02;18.85;;;9.43;;
57593;SDS011;43423;46.510;6.686;2022-12-10T05:08:29;19.70;;;8.63;;
57593;SDS011;43423;46.510;6.686;2022-12-10T05:10:59;19.08;;;9.07;;
57593;SDS011;43423;46.510;6.686;2022-12-10T05:13:29;25.75;;;10.13;;
57593;SDS011;43423;46.510;6.686;2022-12-10T05:15:54;25.08;;;10.70;;
57593;SDS011;43423;46.510;6.686;2022-12-10T05:18:20;21.75;;;9.82;;
57593;SDS011;43423;46.510;6.686;2022-12-10T05:20:45;19.67;;;9.00;;
57593;SDS011;43423;46.510;6.686;2022-12-10T05:23:11;24.77;;;10.20;;
57593;SDS011;43423;46.510;6.686;2022-12-10T05:28:24;23.75;;;10.50;;
57593;SDS011;43423;46.510;6.686;2022-12-10T05:30:50;23.35;;;11.13;;
57593;SDS011;43423;46.510;6.686;2022-12-10T05:33:16;22.90;;;10.48;;
57593;SDS011;43423;46.510;6.686;2022-12-10T05:35:42;20.10;;;10.13;;
57593;SDS011;43423;46.510;6.686;2022-12-10T05:38:07;27.20;;;12.10;;
57593;SDS011;43423;46.510;6.686;2022-12-10T05:40:36;21.63;;;10.15;;
57593;SDS011;43423;46.510;6.686;2022-12-10T05:43:02;24.98;;;10.68;;
57593;SDS011;43423;46.510;6.686;2022-12-10T05:45:28;24.77;;;10.88;;
57593;SDS011;43423;46.510;6.686;2022-12-10T05:47:53;22.65;;;10.32;;
57593;SDS011;43423;46.510;6.686;2022-12-10T05:50:19;22.33;;;10.32;;
57593;SDS011;43423;46.510;6.686;2022-12-10T05:52:45;22.38;;;10.77;;
57593;SDS011;43423;46.510;6.686;2022-12-10T05:55:10;25.77;;;11.63;;
57593;SDS011;43423;46.510;6.686;2022-12-10T05:57:36;24.30;;;11.15;;
57593;SDS011;43423;46.510;6.686;2022-12-10T06:00:05;20.95;;;10.05;;
57593;SDS011;43423;46.510;6.686;2022-12-10T06:02:32;21.52;;;10.45;;
57593;SDS011;43423;46.510;6.686;2022-12-10T06:04:58;19.80;;;10.18;;
57593;SDS011;43423;46.510;6.686;2022-12-10T06:07:24;22.33;;;11.13;;
57593;SDS011;43423;46.510;6.686;2022-12-10T06:09:50;24.27;;;10.68;;
57593;SDS011;43423;46.510;6.686;2022-12-10T06:12:16;23.75;;;10.65;;
57593;SDS011;43423;46.510;6.686;2022-12-10T06:14:41;23.77;;;10.65;;
57593;SDS011;43423;46.510;6.686;2022-12-10T06:17:07;24.55;;;10.98;;
57593;SDS011;43423;46.510;6.686;2022-12-10T06:19:32;23.85;;;11.15;;
57593;SDS011;43423;46.510;6.686;2022-12-10T06:21:58;21.73;;;11.15;;
57593;SDS011;43423;46.510;6.686;2022-12-10T06:24:24;19.45;;;9.45;;
57593;SDS011;43423;46.510;6.686;2022-12-10T06:26:50;21.48;;;9.32;;
57593;SDS011;43423;46.510;6.686;2022-12-10T06:29:16;18.40;;;8.45;;
57593;SDS011;43423;46.510;6.686;2022-12-10T06:31:43;15.77;;;7.97;;
57593;SDS011;43423;46.510;6.686;2022-12-10T06:34:08;15.25;;;7.72;;
57593;SDS011;43423;46.510;6.686;2022-12-10T06:36:34;17.10;;;8.38;;
57593;SDS011;43423;46.510;6.686;2022-12-10T06:39:00;18.38;;;8.02;;
57593;SDS011;43423;46.510;6.686;2022-12-10T06:41:26;17.20;;;7.13;;
57593;SDS011;43423;46.510;6.686;2022-12-10T06:43:52;17.85;;;7.80;;
57593;SDS011;43423;46.510;6.686;2022-12-10T06:46:19;17.15;;;8.13;;
57593;SDS011;43423;46.510;6.686;2022-12-10T06:48:45;26.45;;;8.35;;
57593;SDS011;43423;46.510;6.686;2022-12-10T06:51:12;18.98;;;8.98;;
57593;SDS011;43423;46.510;6.686;2022-12-10T06:53:38;23.33;;;9.18;;
57593;SDS011;43423;46.510;6.686;2022-12-10T06:56:05;16.02;;;7.90;;
57593;SDS011;43423;46.510;6.686;2022-12-10T06:58:32;17.23;;;8.13;;
57593;SDS011;43423;46.510;6.686;2022-12-10T07:01:08;15.65;;;7.57;;
57593;SDS011;43423;46.510;6.686;2022-12-10T07:03:52;16.85;;;7.72;;
57593;SDS011;43423;46.510;6.686;2022-12-10T07:06:20;15.25;;;7.43;;
57593;SDS011;43423;46.510;6.686;2022-12-10T07:08:46;14.82;;;7.30;;
57593;SDS011;43423;46.510;6.686;2022-12-10T07:11:14;17.15;;;6.93;;
57593;SDS011;43423;46.510;6.686;2022-12-10T07:13:40;16.73;;;7.05;;
57593;SDS011;43423;46.510;6.686;2022-12-10T07:16:16;17.13;;;7.72;;
57593;SDS011;43423;46.510;6.686;2022-12-10T07:18:47;14.23;;;7.28;;
57593;SDS011;43423;46.510;6.686;2022-12-10T07:23:40;17.48;;;6.85;;
57593;SDS011;43423;46.510;6.686;2022-12-10T07:26:06;15.38;;;7.05;;
57593;SDS011;43423;46.510;6.686;2022-12-10T07:28:32;18.67;;;6.75;;
57593;SDS011;43423;46.510;6.686;2022-12-10T07:31:02;17.73;;;6.50;;
57593;SDS011;43423;46.510;6.686;2022-12-10T07:33:31;12.60;;;6.20;;
57593;SDS011;43423;46.510;6.686;2022-12-10T07:35:58;16.58;;;7.22;;
57593;SDS011;43423;46.510;6.686;2022-12-10T07:38:24;15.77;;;6.93;;
57593;SDS011;43423;46.510;6.686;2022-12-10T07:40:50;16.95;;;7.80;;
57593;SDS011;43423;46.510;6.686;2022-12-10T07:43:16;13.48;;;6.47;;
57593;SDS011;43423;46.510;6.686;2022-12-10T07:45:43;14.10;;;7.22;;
57593;SDS011;43423;46.510;6.686;2022-12-10T07:48:08;15.35;;;7.43;;
57593;SDS011;43423;46.510;6.686;2022-12-10T07:50:35;12.32;;;6.75;;
57593;SDS011;43423;46.510;6.686;2022-12-10T07:53:00;15.60;;;7.90;;
57593;SDS011;43423;46.510;6.686;2022-12-10T07:55:26;13.95;;;7.22;;
57593;SDS011;43423;46.510;6.686;2022-12-10T07:57:52;19.05;;;7.72;;
57593;SDS011;43423;46.510;6.686;2022-12-10T08:00:17;18.50;;;8.50;;
57593;SDS011;43423;46.510;6.686;2022-12-10T08:02:43;20.73;;;9.43;;
57593;SDS011;43423;46.510;6.686;2022-12-10T08:05:09;20.33;;;9.77;;
57593;SDS011;43423;46.510;6.686;2022-12-10T08:07:34;22.10;;;10.50;;
57593;SDS011;43423;46.510;6.686;2022-12-10T08:10:00;22.98;;;10.73;;
57593;SDS011;43423;46.510;6.686;2022-12-10T08:12:26;19.15;;;10.50;;
57593;SDS011;43423;46.510;6.686;2022-12-10T08:14:52;19.38;;;8.68;;
57593;SDS011;43423;46.510;6.686;2022-12-10T08:17:17;23.13;;;10.63;;
57593;SDS011;43423;46.510;6.686;2022-12-10T08:19:43;21.65;;;10.30;;
57593;SDS011;43423;46.510;6.686;2022-12-10T08:22:08;25.25;;;10.88;;
57593;SDS011;43423;46.510;6.686;2022-12-10T08:24:34;27.70;;;10.52;;
57593;SDS011;43423;46.510;6.686;2022-12-10T08:27:00;24.05;;;11.55;;
57593;SDS011;43423;46.510;6.686;2022-12-10T08:29:25;22.55;;;10.38;;
57593;SDS011;43423;46.510;6.686;2022-12-10T08:31:51;27.13;;;12.05;;
57593;SDS011;43423;46.510;6.686;2022-12-10T08:34:18;27.88;;;11.02;;
57593;SDS011;43423;46.510;6.686;2022-12-10T08:36:44;27.95;;;12.10;;
57593;SDS011;43423;46.510;6.686;2022-12-10T08:39:10;29.35;;;11.55;;
57593;SDS011;43423;46.510;6.686;2022-12-10T08:41:40;23.35;;;11.07;;
57593;SDS011;43423;46.510;6.686;2022-12-10T08:44:07;19.92;;;9.02;;
57593;SDS011;43423;46.510;6.686;2022-12-10T08:46:32;19.48;;;9.10;;
57593;SDS011;43423;46.510;6.686;2022-12-10T08:48:58;24.10;;;9.77;;
57593;SDS011;43423;46.510;6.686;2022-12-10T08:51:24;17.17;;;7.97;;
57593;SDS011;43423;46.510;6.686;2022-12-10T08:53:50;16.45;;;7.78;;
57593;SDS011;43423;46.510;6.686;2022-12-10T08:56:16;22.52;;;9.60;;
57593;SDS011;43423;46.510;6.686;2022-12-10T08:58:42;15.90;;;8.30;;
57593;SDS011;43423;46.510;6.686;2022-12-10T09:01:11;18.35;;;8.50;;
57593;SDS011;43423;46.510;6.686;2022-12-10T09:03:39;18.58;;;8.68;;
57593;SDS011;43423;46.510;6.686;2022-12-10T09:06:06;25.05;;;9.23;;
57593;SDS011;43423;46.510;6.686;2022-12-10T09:08:34;16.77;;;8.18;;
57593;SDS011;43423;46.510;6.686;2022-12-10T09:11:07;15.68;;;7.80;;
57593;SDS011;43423;46.510;6.686;2022-12-10T09:13:34;17.80;;;8.65;;
57593;SDS011;43423;46.510;6.686;2022-12-10T09:15:59;14.55;;;7.30;;
57593;SDS011;43423;46.510;6.686;2022-12-10T09:18:25;14.90;;;7.15;;
57593;SDS011;43423;46.510;6.686;2022-12-10T09:20:51;13.07;;;7.03;;
57593;SDS011;43423;46.510;6.686;2022-12-10T09:23:16;15.52;;;7.75;;
57593;SDS011;43423;46.510;6.686;2022-12-10T09:25:42;15.23;;;7.32;;
57593;SDS011;43423;46.510;6.686;2022-12-10T09:28:07;20.73;;;7.90;;
57593;SDS011;43423;46.510;6.686;2022-12-10T09:30:33;20.05;;;9.40;;
57593;SDS011;43423;46.510;6.686;2022-12-10T09:32:59;22.48;;;9.75;;
57593;SDS011;43423;46.510;6.686;2022-12-10T09:35:24;24.48;;;10.07;;
57593;SDS011;43423;46.510;6.686;2022-12-10T09:37:50;35.60;;;14.10;;
57593;SDS011;43423;46.510;6.686;2022-12-10T09:40:16;39.75;;;15.38;;
57593;SDS011;43423;46.510;6.686;2022-12-10T09:42:49;25.17;;;11.55;;
57593;SDS011;43423;46.510;6.686;2022-12-10T09:50:55;19.85;;;9.10;;
57593;SDS011;43423;46.510;6.686;2022-12-10T09:53:28;19.55;;;9.07;;
57593;SDS011;43423;46.510;6.686;2022-12-10T09:55:55;17.10;;;8.48;;
57593;SDS011;43423;46.510;6.686;2022-12-10T09:58:24;13.60;;;7.50;;
57593;SDS011;43423;46.510;6.686;2022-12-10T10:00:59;19.33;;;9.18;;
57593;SDS011;43423;46.510;6.686;2022-12-10T10:03:27;17.10;;;8.43;;
57593;SDS011;43423;46.510;6.686;2022-12-10T10:05:56;16.17;;;8.43;;
57593;SDS011;43423;46.510;6.686;2022-12-10T10:08:32;13.38;;;8.23;;
57593;SDS011;43423;46.510;6.686;2022-12-10T10:10:59;21.63;;;9.77;;
57593;SDS011;43423;46.510;6.686;2022-12-10T10:16:27;19.00;;;9.93;;
57593;SDS011;43423;46.510;6.686;2022-12-10T10:19:05;22.10;;;10.50;;
57593;SDS011;43423;46.510;6.686;2022-12-10T10:21:45;22.05;;;10.63;;
57593;SDS011;43423;46.510;6.686;2022-12-10T10:24:14;24.52;;;11.25;;
57593;SDS011;43423;46.510;6.686;2022-12-10T10:26:42;25.05;;;11.52;;
57593;SDS011;43423;46.510;6.686;2022-12-10T10:29:09;23.15;;;10.93;;
57593;SDS011;43423;46.510;6.686;2022-12-10T10:31:38;19.67;;;9.57;;
57593;SDS011;43423;46.510;6.686;2022-12-10T10:34:15;18.15;;;8.88;;
57593;SDS011;43423;46.510;6.686;2022-12-10T10:36:45;19.80;;;9.27;;
57593;SDS011;43423;46.510;6.686;2022-12-10T10:41:43;22.63;;;11.88;;
57593;SDS011;43423;46.510;6.686;2022-12-10T10:44:16;22.58;;;10.32;;
57593;SDS011;43423;46.510;6.686;2022-12-10T10:46:44;24.70;;;10.52;;
57593;SDS011;43423;46.510;6.686;2022-12-10T10:49:13;23.63;;;9.65;;
57593;SDS011;43423;46.510;6.686;2022-12-10T10:51:49;25.17;;;10.23;;
57593;SDS011;43423;46.510;6.686;2022-12-10T10:57:35;20.83;;;9.63;;
57593;SDS011;43423;46.510;6.686;2022-12-10T11:00:19;22.80;;;10.05;;
57593;SDS011;43423;46.510;6.686;2022-12-10T11:02:49;20.25;;;8.35;;
57593;SDS011;43423;46.510;6.686;2022-12-10T11:05:16;23.20;;;10.48;;
57593;SDS011;43423;46.510;6.686;2022-12-10T11:07:58;21.58;;;9.93;;
57593;SDS011;43423;46.510;6.686;2022-12-10T11:10:26;26.55;;;9.27;;
57593;SDS011;43423;46.510;6.686;2022-12-10T11:15:33;23.35;;;10.40;;
57593;SDS011;43423;46.510;6.686;2022-12-10T11:18:00;20.92;;;9.10;;
57593;SDS011;43423;46.510;6.686;2022-12-10T11:20:31;23.05;;;10.48;;
57593;SDS011;43423;46.510;6.686;2022-12-10T11:23:00;21.13;;;10.48;;
57593;SDS011;43423;46.510;6.686;2022-12-10T11:28:23;22.80;;;9.95;;
57593;SDS011;43423;46.510;6.686;2022-12-10T11:34:18;29.10;;;11.50;;
57593;SDS011;43423;46.510;6.686;2022-12-10T11:47:57;23.23;;;10.68;;
57593;SDS011;43423;46.510;6.686;2022-12-10T11:50:48;22.65;;;10.65;;
57593;SDS011;43423;46.510;6.686;2022-12-10T11:53:28;24.10;;;10.75;;
57593;SDS011;43423;46.510;6.686;2022-12-10T12:01:55;24.25;;;11.27;;
57593;SDS011;43423;46.510;6.686;2022-12-10T12:04:46;21.83;;;11.05;;
57593;SDS011;43423;46.510;6.686;2022-12-10T12:07:51;21.95;;;10.20;;
57593;SDS011;43423;46.510;6.686;2022-12-10T12:18:18;23.85;;;11.18;;
57593;SDS011;43423;46.510;6.686;2022-12-10T12:21:00;22.90;;;10.05;;
57593;SDS011;43423;46.510;6.686;2022-12-10T12:23:31;22.65;;;10.85;;
57593;SDS011;43423;46.510;6.686;2022-12-10T12:26:00;25.20;;;11.32;;
57593;SDS011;43423;46.510;6.686;2022-12-10T12:28:35;22.75;;;9.82;;
57593;SDS011;43423;46.510;6.686;2022-12-10T12:31:09;28.52;;;11.43;;
57593;SDS011;43423;46.510;6.686;2022-12-10T12:33:45;26.33;;;10.80;;
57593;SDS011;43423;46.510;6.686;2022-12-10T12:36:30;21.80;;;10.02;;
57593;SDS011;43423;46.510;6.686;2022-12-10T12:47:19;22.88;;;10.60;;
57593;SDS011;43423;46.510;6.686;2022-12-10T12:49:56;28.35;;;10.10;;
57593;SDS011;43423;46.510;6.686;2022-12-10T12:52:40;25.02;;;11.57;;
57593;SDS011;43423;46.510;6.686;2022-12-10T12:55:19;24.63;;;10.80;;
57593;SDS011;43423;46.510;6.686;2022-12-10T12:57:53;31.27;;;12.95;;
57593;SDS011;43423;46.510;6.686;2022-12-10T13:00:35;30.77;;;11.25;;
57593;SDS011;43423;46.510;6.686;2022-12-10T13:05:38;27.77;;;10.90;;
57593;SDS011;43423;46.510;6.686;2022-12-10T13:08:15;25.15;;;11.40;;
57593;SDS011;43423;46.510;6.686;2022-12-10T13:10:45;28.65;;;11.45;;
57593;SDS011;43423;46.510;6.686;2022-12-10T13:13:23;24.80;;;10.82;;
57593;SDS011;43423;46.510;6.686;2022-12-10T13:15:52;26.35;;;10.68;;
57593;SDS011;43423;46.510;6.686;2022-12-10T13:18:19;26.30;;;10.40;;
57593;SDS011;43423;46.510;6.686;2022-12-10T13:20:48;31.52;;;12.38;;
57593;SDS011;43423;46.510;6.686;2022-12-10T13:28:17;22.17;;;9.45;;
57593;SDS011;43423;46.510;6.686;2022-12-10T13:30:47;26.85;;;10.48;;
57593;SDS011;43423;46.510;6.686;2022-12-10T13:36:27;25.20;;;10.20;;
57593;SDS011;43423;46.510;6.686;2022-12-10T13:39:22;30.95;;;12.07;;
57593;SDS011;43423;46.510;6.686;2022-12-10T13:44:59;31.55;;;11.07;;
57593;SDS011;43423;46.510;6.686;2022-12-10T13:47:41;26.48;;;11.23;;
57593;SDS011;43423;46.510;6.686;2022-12-10T13:50:24;28.45;;;11.70;;
57593;SDS011;43423;46.510;6.686;2022-12-10T13:53:03;25.83;;;10.52;;
57593;SDS011;43423;46.510;6.686;2022-12-10T13:55:36;23.98;;;9.82;;
57593;SDS011;43423;46.510;6.686;2022-12-10T14:00:57;27.02;;;10.27;;
57593;SDS011;43423;46.510;6.686;2022-12-10T14:04:02;25.00;;;10.23;;
57593;SDS011;43423;46.510;6.686;2022-12-10T14:06:39;26.45;;;10.80;;
57593;SDS011;43423;46.510;6.686;2022-12-10T14:09:27;25.90;;;9.70;;
57593;SDS011;43423;46.510;6.686;2022-12-10T14:11:55;25.73;;;10.50;;
57593;SDS011;43423;46.510;6.686;2022-12-10T14:14:31;25.35;;;9.60;;
57593;SDS011;43423;46.510;6.686;2022-12-10T14:17:04;24.08;;;10.32;;
57593;SDS011;43423;46.510;6.686;2022-12-10T14:19:31;24.48;;;9.07;;
57593;SDS011;43423;46.510;6.686;2022-12-10T14:22:03;26.30;;;11.10;;
57593;SDS011;43423;46.510;6.686;2022-12-10T14:24:33;23.45;;;9.88;;
57593;SDS011;43423;46.510;6.686;2022-12-10T14:27:25;24.60;;;9.88;;
57593;SDS011;43423;46.510;6.686;2022-12-10T14:29:50;28.45;;;11.00;;
57593;SDS011;43423;46.510;6.686;2022-12-10T14:32:19;27.42;;;11.27;;
57593;SDS011;43423;46.510;6.686;2022-12-10T14:34:57;23.88;;;9.98;;
57593;SDS011;43423;46.510;6.686;2022-12-10T14:37:26;26.35;;;10.90;;
57593;SDS011;43423;46.510;6.686;2022-12-10T14:39:54;23.92;;;9.70;;
57593;SDS011;43423;46.510;6.686;2022-12-10T14:42:20;28.20;;;10.68;;
57593;SDS011;43423;46.510;6.686;2022-12-10T14:44:46;31.15;;;11.20;;
57593;SDS011;43423;46.510;6.686;2022-12-10T14:47:20;26.55;;;9.48;;
57593;SDS011;43423;46.510;6.686;2022-12-10T14:49:47;22.90;;;9.40;;
57593;SDS011;43423;46.510;6.686;2022-12-10T14:52:17;20.60;;;8.82;;
57593;SDS011;43423;46.510;6.686;2022-12-10T14:54:45;18.85;;;8.85;;
57593;SDS011;43423;46.510;6.686;2022-12-10T14:57:27;23.13;;;9.25;;
57593;SDS011;43423;46.510;6.686;2022-12-10T15:02:38;22.80;;;9.10;;
57593;SDS011;43423;46.510;6.686;2022-12-10T15:05:17;24.67;;;10.25;;
57593;SDS011;43423;46.510;6.686;2022-12-10T15:07:48;26.23;;;11.60;;
57593;SDS011;43423;46.510;6.686;2022-12-10T15:10:21;20.58;;;9.88;;
57593;SDS011;43423;46.510;6.686;2022-12-10T15:12:54;23.25;;;8.88;;
57593;SDS011;43423;46.510;6.686;2022-12-10T15:15:34;20.58;;;8.68;;
57593;SDS011;43423;46.510;6.686;2022-12-10T15:20:45;19.95;;;8.43;;
57593;SDS011;43423;46.510;6.686;2022-12-10T15:33:43;21.75;;;9.43;;
57593;SDS011;43423;46.510;6.686;2022-12-10T15:39:02;26.75;;;10.30;;
57593;SDS011;43423;46.510;6.686;2022-12-10T15:41:34;29.00;;;11.70;;
57593;SDS011;43423;46.510;6.686;2022-12-10T15:44:04;27.80;;;11.77;;
57593;SDS011;43423;46.510;6.686;2022-12-10T15:46:31;32.35;;;12.55;;
57593;SDS011;43423;46.510;6.686;2022-12-10T15:48:57;32.38;;;11.52;;
57593;SDS011;43423;46.510;6.686;2022-12-10T15:51:23;24.98;;;11.73;;
57593;SDS011;43423;46.510;6.686;2022-12-10T15:53:50;35.22;;;12.30;;
57593;SDS011;43423;46.510;6.686;2022-12-10T15:56:15;32.42;;;13.00;;
57593;SDS011;43423;46.510;6.686;2022-12-10T15:58:41;24.90;;;11.70;;
57593;SDS011;43423;46.510;6.686;2022-12-10T16:01:08;31.67;;;13.13;;
57593;SDS011;43423;46.510;6.686;2022-12-10T16:06:06;30.45;;;12.68;;
57593;SDS011;43423;46.510;6.686;2022-12-10T16:08:32;33.28;;;11.23;;
57593;SDS011;43423;46.510;6.686;2022-12-10T16:11:00;30.80;;;11.73;;
57593;SDS011;43423;46.510;6.686;2022-12-10T16:13:32;28.85;;;12.00;;
57593;SDS011;43423;46.510;6.686;2022-12-10T16:16:05;27.77;;;11.80;;
57593;SDS011;43423;46.510;6.686;2022-12-10T16:18:33;30.80;;;12.05;;
57593;SDS011;43423;46.510;6.686;2022-12-10T16:21:02;31.88;;;12.90;;
57593;SDS011;43423;46.510;6.686;2022-12-10T16:23:30;30.75;;;11.65;;
57593;SDS011;43423;46.510;6.686;2022-12-10T16:25:56;31.48;;;12.50;;
57593;SDS011;43423;46.510;6.686;2022-12-10T16:28:23;30.52;;;11.65;;
57593;SDS011;43423;46.510;6.686;2022-12-10T16:30:50;28.65;;;11.70;;
57593;SDS011;43423;46.510;6.686;2022-12-10T16:33:18;25.35;;;10.68;;
57593;SDS011;43423;46.510;6.686;2022-12-10T16:35:48;29.67;;;11.65;;
57593;SDS011;43423;46.510;6.686;2022-12-10T16:38:16;34.60;;;11.73;;
57593;SDS011;43423;46.510;6.686;2022-12-10T16:40:43;35.83;;;13.02;;
57593;SDS011;43423;46.510;6.686;2022-12-10T16:43:14;27.98;;;12.18;;